createdAt,value
2022-08-22T00:00:30.712Z,26.68
2022-08-22T00:02:42.144Z,29.93
2022-08-22T00:02:55.385Z,27.04
2022-08-22T00:02:57.282Z,27.76
2022-08-22T00:02:59.073Z,26.89
2022-08-22T00:05:59.211Z,26.62
2022-08-22T00:08:50.154Z,26.57
2022-08-22T00:11:43.964Z,26.53
2022-08-22T00:14:11.943Z,26.53
2022-08-22T00:16:50.021Z,26.54
2022-08-22T00:19:45.466Z,26.51
2022-08-22T00:22:31.995Z,26.50
2022-08-22T00:25:25.623Z,26.50
2022-08-22T00:28:00.106Z,26.58
2022-08-22T00:30:30.453Z,26.57
2022-08-22T00:33:11.597Z,26.46
2022-08-22T00:35:45.443Z,26.41
2022-08-22T00:38:19.051Z,26.36
2022-08-22T00:41:07.946Z,26.35
2022-08-22T00:43:57.713Z,26.40
2022-08-22T00:46:48.662Z,26.45
2022-08-22T00:49:40.556Z,26.45
2022-08-22T00:52:46.504Z,26.49
2022-08-22T00:55:52.689Z,26.53
2022-08-22T00:58:38.354Z,26.56
2022-08-22T01:01:10.703Z,26.62
2022-08-22T01:03:44.538Z,26.55
2022-08-22T01:06:12.449Z,26.58
2022-08-22T01:08:49.243Z,26.58
2022-08-22T01:11:41.671Z,26.65
2022-08-22T01:14:44.686Z,26.64
2022-08-22T01:17:25.207Z,26.54
2022-08-22T01:20:23.458Z,26.59
2022-08-22T01:23:36.518Z,26.56
2022-08-22T01:26:46.833Z,26.53
2022-08-22T01:29:41.732Z,26.55
2022-08-22T01:32:29.136Z,26.37
2022-08-22T01:35:14.838Z,26.40
2022-08-22T01:38:01.310Z,26.42
2022-08-22T01:41:12.066Z,26.33
2022-08-22T01:44:26.106Z,26.28
2022-08-22T01:46:59.005Z,26.23
2022-08-22T01:49:35.940Z,26.04
2022-08-22T01:52:10.079Z,25.94
2022-08-22T01:55:24.103Z,25.84
2022-08-22T01:57:59.768Z,25.77
2022-08-22T02:00:51.255Z,25.66
2022-08-22T02:03:37.455Z,25.60
2022-08-22T02:06:14.595Z,25.61
2022-08-22T02:09:03.515Z,25.50
2022-08-22T02:12:01.903Z,25.40
2022-08-22T02:14:32.964Z,25.34
2022-08-22T02:17:26.323Z,25.21
2022-08-22T02:20:35.828Z,25.05
2022-08-22T02:23:34.404Z,24.81
2022-08-22T02:26:19.759Z,24.91
2022-08-22T02:29:28.892Z,24.91
2022-08-22T02:32:08.767Z,24.90
2022-08-22T02:34:40.465Z,24.84
2022-08-22T02:37:42.339Z,24.79
2022-08-22T02:40:35.265Z,24.74
2022-08-22T02:43:08.155Z,24.78
2022-08-22T02:45:45.004Z,24.75
2022-08-22T02:48:40.673Z,24.80
2022-08-22T02:51:46.785Z,24.79
2022-08-22T02:55:08.076Z,24.94
2022-08-22T02:57:43.974Z,24.95
2022-08-22T03:00:32.409Z,24.91
2022-08-22T03:03:20.048Z,24.87
2022-08-22T03:06:26.963Z,24.73
2022-08-22T03:09:23.373Z,24.77
2022-08-22T03:12:05.246Z,24.82
2022-08-22T03:14:43.620Z,24.81
2022-08-22T03:17:22.928Z,24.77
2022-08-22T03:20:03.116Z,24.78
2022-08-22T03:22:54.010Z,24.50
2022-08-22T03:25:50.913Z,24.38
2022-08-22T03:28:32.875Z,24.32
2022-08-22T03:31:18.618Z,24.24
2022-08-22T03:34:15.391Z,24.12
2022-08-22T03:36:58.320Z,24.23
2022-08-22T03:39:54.499Z,24.25
2022-08-22T03:42:46.828Z,24.36
2022-08-22T03:45:53.888Z,24.24
2022-08-22T03:48:30.762Z,24.16
2022-08-22T03:51:29.176Z,24.11
2022-08-22T03:54:30.345Z,24.07
2022-08-22T03:57:06.574Z,24.07
2022-08-22T04:00:00.187Z,23.98
2022-08-22T04:03:05.738Z,24.06
2022-08-22T04:05:53.287Z,24.01
2022-08-22T04:08:41.964Z,23.83
2022-08-22T04:11:52.668Z,23.75
2022-08-22T04:14:46.582Z,23.72
2022-08-22T04:17:49.874Z,23.75
2022-08-22T04:20:56.832Z,23.75
2022-08-22T04:23:52.170Z,23.71
2022-08-22T04:26:44.607Z,23.73
2022-08-22T04:29:42.992Z,24.12
2022-08-22T04:32:38.421Z,24.59
2022-08-22T04:35:36.636Z,24.32
2022-08-22T04:38:12.720Z,24.41
2022-08-22T04:41:02.605Z,24.58
2022-08-22T04:43:51.094Z,25.06
2022-08-22T04:46:32.139Z,24.90
2022-08-22T04:49:17.014Z,24.90
2022-08-22T04:51:52.274Z,25.17
2022-08-22T04:54:38.719Z,25.15
2022-08-22T04:57:33.005Z,25.30
2022-08-22T05:00:07.699Z,24.83
2022-08-22T05:02:39.037Z,25.15
2022-08-22T05:05:14.509Z,25.17
2022-08-22T05:07:54.858Z,24.95
2022-08-22T05:10:28.302Z,24.94
2022-08-22T05:13:05.339Z,24.87
2022-08-22T05:15:39.293Z,25.13
2022-08-22T05:18:09.595Z,25.15
2022-08-22T05:20:40.409Z,25.08
2022-08-22T05:23:17.917Z,24.96
2022-08-22T05:25:49.764Z,25.04
2022-08-22T05:28:29.711Z,25.11
2022-08-22T05:30:58.733Z,25.53
2022-08-22T05:33:38.556Z,25.66
2022-08-22T05:36:16.108Z,25.55
2022-08-22T05:38:57.013Z,25.81
2022-08-22T05:41:29.445Z,25.83
2022-08-22T05:43:57.800Z,26.15
2022-08-22T05:46:38.628Z,26.34
2022-08-22T05:49:17.997Z,26.27
2022-08-22T05:51:53.781Z,26.24
2022-08-22T05:54:34.260Z,26.29
2022-08-22T05:57:32.937Z,26.54
2022-08-22T06:00:11.850Z,26.50
2022-08-22T06:03:13.489Z,26.38
2022-08-22T06:05:47.402Z,26.60
2022-08-22T06:08:20.423Z,26.54
2022-08-22T06:10:53.991Z,26.73
2022-08-22T06:14:01.310Z,26.97
2022-08-22T06:16:34.466Z,27.12
2022-08-22T06:19:05.136Z,27.14
2022-08-22T06:21:54.511Z,27.12
2022-08-22T06:24:28.032Z,27.25
2022-08-22T06:27:08.127Z,27.46
2022-08-22T06:29:49.135Z,27.72
2022-08-22T06:32:30.620Z,27.80
2022-08-22T06:35:57.454Z,27.88
2022-08-22T06:38:35.262Z,27.94
2022-08-22T06:41:09.883Z,28.04
2022-08-22T06:43:41.907Z,28.14
2022-08-22T06:46:12.662Z,28.11
2022-08-22T06:48:41.874Z,28.09
2022-08-22T06:51:12.918Z,28.09
2022-08-22T06:53:48.019Z,28.11
2022-08-22T06:56:25.818Z,28.19
2022-08-22T06:59:02.200Z,28.20
2022-08-22T07:01:53.917Z,28.31
2022-08-22T07:04:26.780Z,28.42
2022-08-22T07:06:57.444Z,28.56
2022-08-22T07:09:35.772Z,28.55
2022-08-22T07:12:20.469Z,28.87
2022-08-22T07:14:52.200Z,29.09
2022-08-22T07:17:28.720Z,29.21
2022-08-22T07:20:28.164Z,29.64
2022-08-22T07:23:01.123Z,29.22
2022-08-22T07:25:30.691Z,29.21
2022-08-22T07:28:37.275Z,29.23
2022-08-22T07:31:34.229Z,28.90
2022-08-22T07:34:45.120Z,29.17
2022-08-22T07:37:18.922Z,29.33
2022-08-22T07:39:53.824Z,29.23
2022-08-22T07:42:30.284Z,29.07
2022-08-22T07:45:01.417Z,29.09
2022-08-22T07:47:57.760Z,29.09
2022-08-22T07:50:35.135Z,29.14
2022-08-22T07:53:35.208Z,29.20
2022-08-22T07:56:24.578Z,29.32
2022-08-22T07:59:08.011Z,29.25
2022-08-22T08:01:40.715Z,29.22
2022-08-22T08:04:14.909Z,29.07
2022-08-22T08:06:43.806Z,28.93
2022-08-22T08:09:15.879Z,29.06
2022-08-22T08:11:45.134Z,29.25
2022-08-22T08:14:16.442Z,29.37
2022-08-22T08:17:19.776Z,29.29
2022-08-22T08:19:51.047Z,29.26
2022-08-22T08:22:27.485Z,29.26
2022-08-22T08:24:58.403Z,29.46
2022-08-22T08:27:50.184Z,29.44
2022-08-22T08:30:24.288Z,29.67
2022-08-22T08:33:25.486Z,29.63
2022-08-22T08:36:06.271Z,29.62
2022-08-22T08:39:00.399Z,29.69
2022-08-22T08:41:43.129Z,29.54
2022-08-22T08:44:35.938Z,29.53
2022-08-22T08:47:12.761Z,29.72
2022-08-22T08:50:02.619Z,29.89
2022-08-22T08:52:34.001Z,29.91
2022-08-22T08:55:21.883Z,29.96
2022-08-22T08:58:12.116Z,30.08
2022-08-22T09:00:46.167Z,29.98
2022-08-22T09:03:35.644Z,30.14
2022-08-22T09:06:32.912Z,30.20
2022-08-22T09:09:28.956Z,30.20
2022-08-22T09:11:57.760Z,30.28
2022-08-22T09:14:53.388Z,30.17
2022-08-22T09:17:41.664Z,29.89
2022-08-22T09:20:30.737Z,30.07
2022-08-22T09:23:21.066Z,30.04
2022-08-22T09:25:57.736Z,30.23
2022-08-22T09:28:44.690Z,30.26
2022-08-22T09:31:47.502Z,30.40
2022-08-22T09:34:35.070Z,30.38
2022-08-22T09:37:06.758Z,30.40
2022-08-22T09:39:51.630Z,30.51
2022-08-22T09:42:57.376Z,30.49
2022-08-22T09:45:36.209Z,30.70
2022-08-22T09:48:26.525Z,30.74
2022-08-22T09:51:34.860Z,30.90
2022-08-22T09:54:31.691Z,30.72
2022-08-22T09:57:29.862Z,30.79
2022-08-22T10:00:16.735Z,30.84
2022-08-22T10:03:22.467Z,31.04
2022-08-22T10:05:59.463Z,31.11
2022-08-22T10:08:50.717Z,31.29
2022-08-22T10:11:25.939Z,31.47
2022-08-22T10:14:22.192Z,31.41
2022-08-22T10:17:02.849Z,31.37
2022-08-22T10:19:38.213Z,31.06
2022-08-22T10:22:29.901Z,31.30
2022-08-22T10:25:13.251Z,31.44
2022-08-22T10:27:53.487Z,31.36
2022-08-22T10:30:35.518Z,31.37
2022-08-22T10:33:16.968Z,31.48
2022-08-22T10:35:47.914Z,31.59
2022-08-22T10:38:27.036Z,31.76
2022-08-22T10:41:30.652Z,31.56
2022-08-22T10:44:10.938Z,31.74
2022-08-22T10:46:47.793Z,31.61
2022-08-22T10:49:41.918Z,31.74
2022-08-22T10:52:30.977Z,31.97
2022-08-22T10:55:09.934Z,32.10
2022-08-22T10:58:06.725Z,32.04
2022-08-22T11:00:50.052Z,32.21
2022-08-22T11:03:23.466Z,32.14
2022-08-22T11:06:02.285Z,32.26
2022-08-22T11:08:47.454Z,32.39
2022-08-22T11:12:07.098Z,32.65
2022-08-22T11:15:15.279Z,32.48
2022-08-22T11:18:16.417Z,32.47
2022-08-22T11:21:02.995Z,32.60
2022-08-22T11:23:39.595Z,32.53
2022-08-22T11:26:14.647Z,32.42
2022-08-22T11:29:29.612Z,32.73
2022-08-22T11:32:04.298Z,32.82
2022-08-22T11:34:48.947Z,32.85
2022-08-22T11:38:03.975Z,32.76
2022-08-22T11:40:54.627Z,32.88
2022-08-22T11:43:51.119Z,32.93
2022-08-22T11:46:32.686Z,33.11
2022-08-22T11:49:32.721Z,33.17
2022-08-22T11:52:03.612Z,33.20
2022-08-22T11:54:59.992Z,33.31
2022-08-22T11:57:44.813Z,33.33
2022-08-22T12:00:24.101Z,33.54
2022-08-22T12:03:18.270Z,33.49
2022-08-22T12:06:02.085Z,33.60
2022-08-22T12:08:30.347Z,33.78
2022-08-22T12:11:18.619Z,33.64
2022-08-22T12:14:06.454Z,33.87
2022-08-22T12:16:37.733Z,33.66
2022-08-22T12:19:33.114Z,33.16
2022-08-22T12:22:11.797Z,33.43
2022-08-22T12:24:46.802Z,33.73
2022-08-22T12:27:28.859Z,33.89
2022-08-22T12:30:28.554Z,34.07
2022-08-22T12:33:22.071Z,33.93
2022-08-22T12:36:18.369Z,34.00
2022-08-22T12:38:54.033Z,34.10
2022-08-22T12:41:40.525Z,34.09
2022-08-22T12:44:54.023Z,34.30
2022-08-22T12:47:55.719Z,34.34
2022-08-22T12:50:50.664Z,34.29
2022-08-22T12:53:27.695Z,34.56
2022-08-22T12:56:10.609Z,34.67
2022-08-22T12:59:31.617Z,34.42
2022-08-22T13:02:12.288Z,34.47
2022-08-22T13:04:51.368Z,34.42
2022-08-22T13:07:42.990Z,34.48
2022-08-22T13:10:32.379Z,34.68
2022-08-22T13:13:03.807Z,34.53
2022-08-22T13:15:53.948Z,34.37
2022-08-22T13:18:31.178Z,34.75
2022-08-22T13:21:04.361Z,34.48
2022-08-22T13:23:39.892Z,34.55
2022-08-22T13:26:31.909Z,34.23
2022-08-22T13:29:25.688Z,33.99
2022-08-22T13:32:02.205Z,33.94
2022-08-22T13:34:46.724Z,34.22
2022-08-22T13:37:24.455Z,34.47
2022-08-22T13:39:58.995Z,34.21
2022-08-22T13:42:31.378Z,34.31
2022-08-22T13:45:10.506Z,34.24
2022-08-22T13:47:49.903Z,34.30
2022-08-22T13:50:25.785Z,34.26
2022-08-22T13:53:02.979Z,34.19
2022-08-22T13:55:49.142Z,34.66
2022-08-22T13:58:20.291Z,34.35
2022-08-22T14:01:17.560Z,34.50
2022-08-22T14:03:48.688Z,34.93
2022-08-22T14:07:01.793Z,34.99
2022-08-22T14:09:37.210Z,34.77
2022-08-22T14:12:12.266Z,34.89
2022-08-22T14:14:47.222Z,34.84
2022-08-22T14:17:23.201Z,34.71
2022-08-22T14:19:59.318Z,34.90
2022-08-22T14:22:35.623Z,34.60
2022-08-22T14:28:09.764Z,34.75
2022-08-22T14:30:37.843Z,34.46
2022-08-22T14:33:18.340Z,34.33
2022-08-22T14:35:56.863Z,34.37
2022-08-22T14:38:40.796Z,34.47
2022-08-22T14:41:52.087Z,33.98
2022-08-22T14:45:00.695Z,34.11
2022-08-22T14:47:55.471Z,33.80
2022-08-22T14:50:40.269Z,33.91
2022-08-22T14:53:10.269Z,33.53
2022-08-22T14:55:41.422Z,33.55
2022-08-22T14:58:27.529Z,33.75
2022-08-22T15:00:57.955Z,33.76
2022-08-22T15:03:30.321Z,33.31
2022-08-22T15:06:05.421Z,33.34
2022-08-22T15:08:42.367Z,33.35
2022-08-22T15:11:22.254Z,33.47
2022-08-22T15:14:12.592Z,33.41
2022-08-22T15:17:02.240Z,33.35
2022-08-22T15:19:33.440Z,33.21
2022-08-22T15:22:13.622Z,33.17
2022-08-22T15:25:08.552Z,33.18
2022-08-22T15:27:50.427Z,33.15
2022-08-22T15:30:35.930Z,32.97
2022-08-22T15:33:17.219Z,32.83
2022-08-22T15:35:48.644Z,32.70
2022-08-22T15:38:38.273Z,32.49
2022-08-22T15:41:23.365Z,32.48
2022-08-22T15:44:05.255Z,32.39
2022-08-22T15:57:43.219Z,31.29
2022-08-22T16:00:31.211Z,31.57
2022-08-22T16:03:29.609Z,31.79
2022-08-22T16:06:07.465Z,31.83
2022-08-22T16:08:51.066Z,31.94
2022-08-22T16:11:33.204Z,31.91
2022-08-22T16:14:33.424Z,31.91
2022-08-22T16:17:07.535Z,32.04
2022-08-22T16:19:36.616Z,31.96
2022-08-22T16:22:07.660Z,31.98
2022-08-22T16:24:57.279Z,31.97
2022-08-22T16:27:27.197Z,32.00
2022-08-22T16:30:08.426Z,31.93
2022-08-22T16:32:36.922Z,31.86
2022-08-22T16:35:05.160Z,31.86
2022-08-22T16:37:44.713Z,31.87
2022-08-22T16:40:26.190Z,31.95
2022-08-22T16:43:12.125Z,31.93
2022-08-22T16:45:45.673Z,31.87
2022-08-22T16:48:22.286Z,31.84
2022-08-22T16:51:06.668Z,31.87
2022-08-22T16:53:35.887Z,31.80
2022-08-22T16:56:29.374Z,31.80
2022-08-22T16:59:49.549Z,31.68
2022-08-22T17:03:09.896Z,31.61
2022-08-22T17:06:02.358Z,31.48
2022-08-22T17:08:54.543Z,31.53
2022-08-22T17:11:44.301Z,31.43
2022-08-22T17:14:24.035Z,31.54
2022-08-22T17:17:14.806Z,31.57
2022-08-22T17:19:52.940Z,31.59
2022-08-22T17:22:24.033Z,31.53
2022-08-22T17:25:25.356Z,31.44
2022-08-22T17:28:20.427Z,31.40
2022-08-22T17:31:00.071Z,31.28
2022-08-22T17:33:33.582Z,31.25
2022-08-22T17:36:27.115Z,31.35
2022-08-22T17:39:04.524Z,31.22
2022-08-22T17:41:50.823Z,31.31
2022-08-22T17:44:27.922Z,31.24
2022-08-22T17:47:21.044Z,31.19
2022-08-22T17:49:57.088Z,31.16
2022-08-22T17:52:41.571Z,31.14
2022-08-22T17:55:27.359Z,31.05
2022-08-22T17:58:06.941Z,31.01
2022-08-22T18:01:06.815Z,30.92
2022-08-22T18:03:38.940Z,30.86
2022-08-22T18:06:26.967Z,30.76
2022-08-22T18:09:17.272Z,30.77
2022-08-22T18:11:54.819Z,30.70
2022-08-22T18:14:49.020Z,30.65
2022-08-22T18:17:30.284Z,30.57
2022-08-22T18:20:15.618Z,30.56
2022-08-22T18:22:50.664Z,30.60
2022-08-22T18:25:18.497Z,30.53
2022-08-22T18:27:58.499Z,30.43
2022-08-22T18:30:50.899Z,30.41
2022-08-22T18:33:31.009Z,30.34
2022-08-22T18:36:32.705Z,30.35
2022-08-22T18:39:43.038Z,30.34
2022-08-22T18:42:19.502Z,30.30
2022-08-22T18:44:47.579Z,30.27
2022-08-22T18:47:19.442Z,30.35
2022-08-22T18:49:54.699Z,30.23
2022-08-22T18:52:35.594Z,30.24
2022-08-22T18:55:15.847Z,30.20
2022-08-22T18:58:12.861Z,30.16
2022-08-22T19:00:40.707Z,30.13
2022-08-22T19:03:28.495Z,30.21
2022-08-22T19:06:18.935Z,30.19
2022-08-22T19:09:05.346Z,30.06
2022-08-22T19:12:01.929Z,30.00
2022-08-22T19:14:32.423Z,29.94
2022-08-22T19:17:21.224Z,29.88
2022-08-22T19:20:26.043Z,29.87
2022-08-22T19:23:40.754Z,29.86
2022-08-22T19:26:30.195Z,29.68
2022-08-22T19:28:59.915Z,29.56
2022-08-22T19:31:37.350Z,29.49
2022-08-22T19:34:29.220Z,29.56
2022-08-22T19:37:33.150Z,29.55
2022-08-22T19:40:11.555Z,29.60
2022-08-22T19:42:42.210Z,29.59
2022-08-22T19:45:21.664Z,29.44
2022-08-22T19:47:55.999Z,29.23
2022-08-22T19:50:31.096Z,29.32
2022-08-22T19:53:25.300Z,29.18
2022-08-22T19:56:13.757Z,29.10
2022-08-22T19:58:55.197Z,29.09
2022-08-22T20:01:38.549Z,29.02
2022-08-22T20:04:44.857Z,28.77
2022-08-22T20:07:50.284Z,28.60
2022-08-22T20:10:34.129Z,28.53
2022-08-22T20:13:05.730Z,28.68
2022-08-22T20:16:10.852Z,28.60
2022-08-22T20:19:09.517Z,28.51
2022-08-22T20:21:46.656Z,28.47
2022-08-22T20:24:26.471Z,28.68
2022-08-22T20:27:13.497Z,28.77
2022-08-22T20:29:49.365Z,28.73
2022-08-22T20:32:21.433Z,28.62
2022-08-22T20:34:54.393Z,28.33
2022-08-22T20:37:45.425Z,27.98
2022-08-22T20:40:55.958Z,27.70
2022-08-22T20:43:37.574Z,27.50
2022-08-22T20:46:47.182Z,27.44
2022-08-22T20:49:31.970Z,27.36
2022-08-22T20:52:05.103Z,27.32
2022-08-22T20:54:38.819Z,27.33
2022-08-22T20:57:19.954Z,27.32
2022-08-22T20:59:54.461Z,27.30
2022-08-22T21:02:27.803Z,27.26
2022-08-22T21:05:06.488Z,27.30
2022-08-22T21:07:37.725Z,27.20
2022-08-22T21:10:41.412Z,27.17
2022-08-22T21:13:27.631Z,27.15
2022-08-22T21:16:11.497Z,27.16
2022-08-22T21:18:45.981Z,27.12
2022-08-22T21:21:27.413Z,27.15
2022-08-22T21:24:01.882Z,27.05
2022-08-22T21:26:38.882Z,27.04
2022-08-22T21:29:12.620Z,27.03
2022-08-22T21:31:47.729Z,27.12
2022-08-22T21:34:21.451Z,27.06
2022-08-22T21:36:55.162Z,26.96
2022-08-22T21:39:30.928Z,26.98
2022-08-22T21:42:01.545Z,26.97
2022-08-22T21:44:32.007Z,26.90
2022-08-22T21:47:30.804Z,26.88
2022-08-22T21:50:11.188Z,26.83
2022-08-22T21:52:42.051Z,26.81
2022-08-22T21:55:17.622Z,26.75
2022-08-22T21:57:45.703Z,26.73
2022-08-22T22:00:39.571Z,26.67
2022-08-22T22:03:07.692Z,26.61
2022-08-22T22:05:38.710Z,26.64
2022-08-22T22:08:11.327Z,26.58
2022-08-22T22:10:41.650Z,26.62
2022-08-22T22:13:10.901Z,26.58
2022-08-22T22:15:47.805Z,26.55
2022-08-22T22:18:18.992Z,26.46
2022-08-22T22:20:47.580Z,26.40
2022-08-22T22:23:16.598Z,26.34
2022-08-22T22:25:45.716Z,26.37
2022-08-22T22:28:21.865Z,26.33
2022-08-22T22:30:56.088Z,26.23
2022-08-22T22:33:27.562Z,26.15
2022-08-22T22:35:58.459Z,26.14
2022-08-22T22:38:26.768Z,26.07
2022-08-22T22:40:54.634Z,25.96
2022-08-22T22:43:22.498Z,25.95
2022-08-22T22:45:50.468Z,25.82
2022-08-22T22:48:24.547Z,25.82
2022-08-22T22:50:55.326Z,25.90
2022-08-22T22:53:33.833Z,25.89
2022-08-22T22:56:11.634Z,25.92
2022-08-22T22:58:40.671Z,25.83
2022-08-22T23:01:22.693Z,25.79
2022-08-22T23:03:55.664Z,25.71
2022-08-22T23:06:26.277Z,25.65
2022-08-22T23:08:54.886Z,25.48
2022-08-22T23:11:25.753Z,25.49
2022-08-22T23:13:53.710Z,25.43
2022-08-22T23:16:25.895Z,25.38
2022-08-22T23:18:54.091Z,25.33
2022-08-22T23:21:25.545Z,25.28
2022-08-22T23:23:58.295Z,25.27
2022-08-22T23:26:26.937Z,25.23
2022-08-22T23:28:54.935Z,25.17
2022-08-22T23:31:38.534Z,25.15
2022-08-22T23:34:16.585Z,25.08
2022-08-22T23:36:47.167Z,25.07
2022-08-22T23:39:16.515Z,25.05
2022-08-22T23:41:46.459Z,25.12
2022-08-22T23:44:18.139Z,25.06
2022-08-22T23:46:46.896Z,24.97
2022-08-22T23:49:15.806Z,24.93
2022-08-22T23:51:45.440Z,24.85
2022-08-22T23:54:14.396Z,24.80
2022-08-22T23:56:45.213Z,24.75
2022-08-22T23:59:16.684Z,24.75
